sensor_id;sensor_type;location;lat;lon;timestamp;P1;durP1;ratioP1;P2;durP2;ratioP2
34896;SDS011;43407;51.828;-2.298;2023-06-22T00:02:13;4.50;;;4.10;;
34896;SDS011;43407;51.828;-2.298;2023-06-22T00:04:39;3.85;;;3.55;;
34896;SDS011;43407;51.828;-2.298;2023-06-22T00:07:05;4.40;;;4.00;;
34896;SDS011;43407;51.828;-2.298;2023-06-22T00:09:31;4.15;;;3.75;;
34896;SDS011;43407;51.828;-2.298;2023-06-22T00:11:56;6.90;;;4.40;;
34896;SDS011;43407;51.828;-2.298;2023-06-22T00:14:22;5.82;;;4.32;;
34896;SDS011;43407;51.828;-2.298;2023-06-22T00:16:47;4.75;;;4.30;;
34896;SDS011;43407;51.828;-2.298;2023-06-22T00:19:14;5.22;;;4.30;;
34896;SDS011;43407;51.828;-2.298;2023-06-22T00:21:40;5.15;;;3.92;;
34896;SDS011;43407;51.828;-2.298;2023-06-22T00:24:06;4.65;;;4.10;;
34896;SDS011;43407;51.828;-2.298;2023-06-22T00:26:31;4.78;;;4.22;;
34896;SDS011;43407;51.828;-2.298;2023-06-22T00:28:57;3.90;;;3.50;;
34896;SDS011;43407;51.828;-2.298;2023-06-22T00:31:22;5.93;;;4.22;;
34896;SDS011;43407;51.828;-2.298;2023-06-22T00:33:50;4.25;;;3.80;;
34896;SDS011;43407;51.828;-2.298;2023-06-22T00:36:16;4.50;;;4.10;;
34896;SDS011;43407;51.828;-2.298;2023-06-22T00:38:42;7.57;;;4.03;;
34896;SDS011;43407;51.828;-2.298;2023-06-22T00:41:08;4.60;;;3.72;;
34896;SDS011;43407;51.828;-2.298;2023-06-22T00:43:34;5.25;;;4.75;;
34896;SDS011;43407;51.828;-2.298;2023-06-22T00:45:59;5.43;;;4.93;;
34896;SDS011;43407;51.828;-2.298;2023-06-22T00:48:25;5.03;;;4.20;;
34896;SDS011;43407;51.828;-2.298;2023-06-22T00:50:50;4.32;;;4.00;;
34896;SDS011;43407;51.828;-2.298;2023-06-22T00:53:18;4.40;;;4.00;;
34896;SDS011;43407;51.828;-2.298;2023-06-22T00:55:44;4.20;;;3.80;;
34896;SDS011;43407;51.828;-2.298;2023-06-22T00:58:11;6.07;;;5.20;;
34896;SDS011;43407;51.828;-2.298;2023-06-22T01:00:38;4.63;;;4.10;;
34896;SDS011;43407;51.828;-2.298;2023-06-22T01:03:04;4.55;;;4.25;;
34896;SDS011;43407;51.828;-2.298;2023-06-22T01:05:33;5.95;;;3.90;;
34896;SDS011;43407;51.828;-2.298;2023-06-22T01:11:08;5.15;;;4.60;;
34896;SDS011;43407;51.828;-2.298;2023-06-22T01:13:58;4.57;;;4.15;;
34896;SDS011;43407;51.828;-2.298;2023-06-22T01:16:35;5.35;;;4.85;;
34896;SDS011;43407;51.828;-2.298;2023-06-22T01:21:53;4.90;;;4.43;;
34896;SDS011;43407;51.828;-2.298;2023-06-22T01:24:22;6.72;;;5.60;;
34896;SDS011;43407;51.828;-2.298;2023-06-22T01:27:05;5.88;;;5.38;;
34896;SDS011;43407;51.828;-2.298;2023-06-22T01:29:39;5.50;;;5.00;;
34896;SDS011;43407;51.828;-2.298;2023-06-22T01:32:05;7.53;;;5.05;;
34896;SDS011;43407;51.828;-2.298;2023-06-22T01:34:31;4.88;;;4.47;;
34896;SDS011;43407;51.828;-2.298;2023-06-22T01:36:57;5.57;;;5.07;;
34896;SDS011;43407;51.828;-2.298;2023-06-22T01:39:23;6.47;;;5.20;;
34896;SDS011;43407;51.828;-2.298;2023-06-22T01:41:48;5.80;;;5.28;;
34896;SDS011;43407;51.828;-2.298;2023-06-22T01:44:14;6.47;;;5.53;;
34896;SDS011;43407;51.828;-2.298;2023-06-22T01:46:40;7.18;;;6.05;;
34896;SDS011;43407;51.828;-2.298;2023-06-22T01:49:06;6.10;;;5.18;;
34896;SDS011;43407;51.828;-2.298;2023-06-22T01:51:32;5.78;;;5.25;;
34896;SDS011;43407;51.828;-2.298;2023-06-22T01:53:58;4.90;;;4.40;;
34896;SDS011;43407;51.828;-2.298;2023-06-22T01:56:23;5.28;;;4.80;;
34896;SDS011;43407;51.828;-2.298;2023-06-22T01:59:11;5.22;;;4.68;;
34896;SDS011;43407;51.828;-2.298;2023-06-22T02:01:44;5.53;;;4.80;;
34896;SDS011;43407;51.828;-2.298;2023-06-22T02:04:22;6.50;;;5.25;;
34896;SDS011;43407;51.828;-2.298;2023-06-22T02:06:51;5.45;;;4.95;;
34896;SDS011;43407;51.828;-2.298;2023-06-22T02:09:19;8.93;;;5.65;;
34896;SDS011;43407;51.828;-2.298;2023-06-22T02:11:46;4.95;;;4.47;;
34896;SDS011;43407;51.828;-2.298;2023-06-22T02:14:12;4.75;;;4.35;;
34896;SDS011;43407;51.828;-2.298;2023-06-22T02:16:38;6.15;;;5.57;;
34896;SDS011;43407;51.828;-2.298;2023-06-22T02:19:04;5.15;;;4.65;;
34896;SDS011;43407;51.828;-2.298;2023-06-22T02:21:31;5.30;;;4.80;;
34896;SDS011;43407;51.828;-2.298;2023-06-22T02:23:57;5.63;;;5.10;;
34896;SDS011;43407;51.828;-2.298;2023-06-22T02:26:23;6.95;;;6.25;;
34896;SDS011;43407;51.828;-2.298;2023-06-22T02:28:50;6.53;;;5.38;;
34896;SDS011;43407;51.828;-2.298;2023-06-22T02:31:15;4.95;;;4.38;;
34896;SDS011;43407;51.828;-2.298;2023-06-22T02:33:41;5.53;;;5.03;;
34896;SDS011;43407;51.828;-2.298;2023-06-22T02:36:07;6.38;;;5.70;;
34896;SDS011;43407;51.828;-2.298;2023-06-22T02:38:34;5.80;;;4.78;;
34896;SDS011;43407;51.828;-2.298;2023-06-22T02:41:02;6.88;;;6.18;;
34896;SDS011;43407;51.828;-2.298;2023-06-22T02:43:28;6.95;;;6.20;;
34896;SDS011;43407;51.828;-2.298;2023-06-22T02:45:53;5.82;;;5.28;;
34896;SDS011;43407;51.828;-2.298;2023-06-22T02:48:19;6.35;;;5.75;;
34896;SDS011;43407;51.828;-2.298;2023-06-22T02:50:44;5.88;;;5.28;;
34896;SDS011;43407;51.828;-2.298;2023-06-22T02:53:10;7.82;;;4.82;;
34896;SDS011;43407;51.828;-2.298;2023-06-22T02:55:35;7.28;;;6.53;;
34896;SDS011;43407;51.828;-2.298;2023-06-22T02:58:00;7.47;;;5.97;;
34896;SDS011;43407;51.828;-2.298;2023-06-22T03:00:29;9.45;;;6.72;;
34896;SDS011;43407;51.828;-2.298;2023-06-22T03:02:55;6.75;;;5.68;;
34896;SDS011;43407;51.828;-2.298;2023-06-22T03:05:22;6.82;;;5.88;;
34896;SDS011;43407;51.828;-2.298;2023-06-22T03:07:48;6.38;;;5.60;;
34896;SDS011;43407;51.828;-2.298;2023-06-22T03:10:14;6.15;;;5.55;;
34896;SDS011;43407;51.828;-2.298;2023-06-22T03:12:40;7.00;;;5.72;;
34896;SDS011;43407;51.828;-2.298;2023-06-22T03:15:06;7.07;;;6.28;;
34896;SDS011;43407;51.828;-2.298;2023-06-22T03:17:33;6.63;;;6.03;;
34896;SDS011;43407;51.828;-2.298;2023-06-22T03:19:59;8.00;;;7.07;;
34896;SDS011;43407;51.828;-2.298;2023-06-22T03:22:25;7.75;;;6.25;;
34896;SDS011;43407;51.828;-2.298;2023-06-22T03:24:50;8.02;;;6.03;;
34896;SDS011;43407;51.828;-2.298;2023-06-22T03:27:16;6.03;;;5.50;;
34896;SDS011;43407;51.828;-2.298;2023-06-22T03:29:41;7.65;;;6.85;;
34896;SDS011;43407;51.828;-2.298;2023-06-22T03:32:07;6.95;;;6.25;;
34896;SDS011;43407;51.828;-2.298;2023-06-22T03:34:32;6.53;;;5.88;;
34896;SDS011;43407;51.828;-2.298;2023-06-22T03:37:03;7.07;;;5.85;;
34896;SDS011;43407;51.828;-2.298;2023-06-22T03:39:29;6.32;;;5.65;;
34896;SDS011;43407;51.828;-2.298;2023-06-22T03:41:55;6.03;;;5.25;;
34896;SDS011;43407;51.828;-2.298;2023-06-22T03:44:20;6.88;;;6.15;;
34896;SDS011;43407;51.828;-2.298;2023-06-22T03:46:46;5.90;;;5.40;;
34896;SDS011;43407;51.828;-2.298;2023-06-22T03:49:11;6.25;;;5.65;;
34896;SDS011;43407;51.828;-2.298;2023-06-22T03:51:37;6.53;;;5.93;;
34896;SDS011;43407;51.828;-2.298;2023-06-22T03:54:02;6.05;;;5.43;;
34896;SDS011;43407;51.828;-2.298;2023-06-22T03:56:28;5.88;;;5.38;;
34896;SDS011;43407;51.828;-2.298;2023-06-22T03:58:53;6.00;;;5.40;;
34896;SDS011;43407;51.828;-2.298;2023-06-22T04:01:19;8.27;;;6.43;;
34896;SDS011;43407;51.828;-2.298;2023-06-22T04:03:44;6.68;;;6.00;;
34896;SDS011;43407;51.828;-2.298;2023-06-22T04:06:10;6.10;;;5.60;;
34896;SDS011;43407;51.828;-2.298;2023-06-22T04:08:35;6.75;;;6.15;;
34896;SDS011;43407;51.828;-2.298;2023-06-22T04:11:01;6.43;;;5.85;;
34896;SDS011;43407;51.828;-2.298;2023-06-22T04:13:26;6.07;;;5.53;;
34896;SDS011;43407;51.828;-2.298;2023-06-22T04:15:52;6.13;;;5.53;;
34896;SDS011;43407;51.828;-2.298;2023-06-22T04:18:17;6.40;;;5.35;;
34896;SDS011;43407;51.828;-2.298;2023-06-22T04:20:43;6.10;;;5.32;;
34896;SDS011;43407;51.828;-2.298;2023-06-22T04:23:11;6.20;;;5.60;;
34896;SDS011;43407;51.828;-2.298;2023-06-22T04:25:38;5.57;;;5.07;;
34896;SDS011;43407;51.828;-2.298;2023-06-22T04:28:04;7.15;;;5.45;;
34896;SDS011;43407;51.828;-2.298;2023-06-22T04:30:30;6.97;;;5.60;;
34896;SDS011;43407;51.828;-2.298;2023-06-22T04:32:57;5.90;;;5.30;;
34896;SDS011;43407;51.828;-2.298;2023-06-22T04:35:25;6.00;;;5.43;;
34896;SDS011;43407;51.828;-2.298;2023-06-22T04:37:53;8.18;;;6.28;;
34896;SDS011;43407;51.828;-2.298;2023-06-22T04:40:22;6.40;;;5.78;;
34896;SDS011;43407;51.828;-2.298;2023-06-22T04:42:47;6.10;;;5.50;;
34896;SDS011;43407;51.828;-2.298;2023-06-22T04:45:19;6.40;;;5.80;;
34896;SDS011;43407;51.828;-2.298;2023-06-22T04:47:45;7.80;;;5.60;;
34896;SDS011;43407;51.828;-2.298;2023-06-22T04:50:14;5.68;;;5.22;;
34896;SDS011;43407;51.828;-2.298;2023-06-22T04:52:40;5.97;;;5.47;;
34896;SDS011;43407;51.828;-2.298;2023-06-22T04:55:05;5.70;;;5.10;;
34896;SDS011;43407;51.828;-2.298;2023-06-22T04:57:32;6.57;;;5.00;;
34896;SDS011;43407;51.828;-2.298;2023-06-22T05:00:00;4.85;;;4.45;;
34896;SDS011;43407;51.828;-2.298;2023-06-22T05:02:26;5.97;;;4.43;;
34896;SDS011;43407;51.828;-2.298;2023-06-22T05:04:57;5.32;;;4.82;;
34896;SDS011;43407;51.828;-2.298;2023-06-22T05:07:23;4.78;;;3.72;;
34896;SDS011;43407;51.828;-2.298;2023-06-22T05:09:50;3.90;;;3.60;;
34896;SDS011;43407;51.828;-2.298;2023-06-22T05:12:16;3.70;;;3.40;;
34896;SDS011;43407;51.828;-2.298;2023-06-22T05:14:41;4.22;;;3.92;;
34896;SDS011;43407;51.828;-2.298;2023-06-22T05:17:07;3.70;;;3.45;;
34896;SDS011;43407;51.828;-2.298;2023-06-22T05:19:38;4.07;;;3.67;;
34896;SDS011;43407;51.828;-2.298;2023-06-22T05:22:03;4.43;;;3.72;;
34896;SDS011;43407;51.828;-2.298;2023-06-22T05:24:29;3.97;;;3.67;;
34896;SDS011;43407;51.828;-2.298;2023-06-22T05:26:54;4.53;;;4.13;;
34896;SDS011;43407;51.828;-2.298;2023-06-22T05:29:20;3.88;;;3.47;;
34896;SDS011;43407;51.828;-2.298;2023-06-22T05:31:47;3.83;;;3.53;;
34896;SDS011;43407;51.828;-2.298;2023-06-22T05:34:12;3.30;;;3.00;;
34896;SDS011;43407;51.828;-2.298;2023-06-22T05:36:38;3.58;;;3.28;;
34896;SDS011;43407;51.828;-2.298;2023-06-22T05:39:13;3.83;;;3.53;;
34896;SDS011;43407;51.828;-2.298;2023-06-22T05:41:39;5.43;;;3.08;;
34896;SDS011;43407;51.828;-2.298;2023-06-22T05:44:04;3.58;;;3.35;;
34896;SDS011;43407;51.828;-2.298;2023-06-22T05:46:30;3.10;;;2.90;;
34896;SDS011;43407;51.828;-2.298;2023-06-22T05:48:55;3.30;;;3.03;;
34896;SDS011;43407;51.828;-2.298;2023-06-22T05:51:21;3.80;;;2.50;;
34896;SDS011;43407;51.828;-2.298;2023-06-22T05:53:46;2.92;;;2.72;;
34896;SDS011;43407;51.828;-2.298;2023-06-22T05:56:14;3.20;;;2.90;;
34896;SDS011;43407;51.828;-2.298;2023-06-22T05:58:40;2.90;;;2.70;;
34896;SDS011;43407;51.828;-2.298;2023-06-22T06:01:06;2.80;;;2.60;;
34896;SDS011;43407;51.828;-2.298;2023-06-22T06:03:31;2.72;;;2.53;;
34896;SDS011;43407;51.828;-2.298;2023-06-22T06:05:57;2.85;;;2.20;;
34896;SDS011;43407;51.828;-2.298;2023-06-22T06:08:22;2.47;;;2.28;;
34896;SDS011;43407;51.828;-2.298;2023-06-22T06:10:48;2.50;;;2.40;;
34896;SDS011;43407;51.828;-2.298;2023-06-22T06:13:13;3.10;;;2.80;;
34896;SDS011;43407;51.828;-2.298;2023-06-22T06:15:39;2.72;;;2.50;;
34896;SDS011;43407;51.828;-2.298;2023-06-22T06:18:05;2.78;;;2.58;;
34896;SDS011;43407;51.828;-2.298;2023-06-22T06:20:31;3.10;;;2.80;;
34896;SDS011;43407;51.828;-2.298;2023-06-22T06:22:57;2.85;;;2.47;;
34896;SDS011;43407;51.828;-2.298;2023-06-22T06:25:22;2.58;;;2.28;;
34896;SDS011;43407;51.828;-2.298;2023-06-22T06:27:48;2.28;;;2.08;;
34896;SDS011;43407;51.828;-2.298;2023-06-22T06:30:16;3.53;;;2.20;;
34896;SDS011;43407;51.828;-2.298;2023-06-22T06:32:42;3.08;;;2.40;;
34896;SDS011;43407;51.828;-2.298;2023-06-22T06:35:10;3.33;;;2.22;;
34896;SDS011;43407;51.828;-2.298;2023-06-22T06:37:37;4.95;;;2.10;;
34896;SDS011;43407;51.828;-2.298;2023-06-22T06:40:07;2.35;;;2.20;;
34896;SDS011;43407;51.828;-2.298;2023-06-22T06:42:35;3.97;;;2.20;;
34896;SDS011;43407;51.828;-2.298;2023-06-22T06:45:06;2.67;;;2.45;;
34896;SDS011;43407;51.828;-2.298;2023-06-22T06:47:33;2.28;;;2.08;;
34896;SDS011;43407;51.828;-2.298;2023-06-22T06:49:58;2.70;;;2.25;;
34896;SDS011;43407;51.828;-2.298;2023-06-22T06:52:24;2.00;;;1.80;;
34896;SDS011;43407;51.828;-2.298;2023-06-22T06:54:50;2.58;;;2.38;;
34896;SDS011;43407;51.828;-2.298;2023-06-22T06:57:17;2.47;;;2.20;;
34896;SDS011;43407;51.828;-2.298;2023-06-22T06:59:43;2.35;;;2.15;;
34896;SDS011;43407;51.828;-2.298;2023-06-22T07:02:08;2.30;;;2.10;;
34896;SDS011;43407;51.828;-2.298;2023-06-22T07:04:34;2.15;;;1.90;;
34896;SDS011;43407;51.828;-2.298;2023-06-22T07:07:01;2.17;;;1.98;;
34896;SDS011;43407;51.828;-2.298;2023-06-22T07:09:27;3.30;;;2.20;;
34896;SDS011;43407;51.828;-2.298;2023-06-22T07:11:52;2.55;;;2.35;;
34896;SDS011;43407;51.828;-2.298;2023-06-22T07:14:18;2.40;;;2.20;;
34896;SDS011;43407;51.828;-2.298;2023-06-22T07:16:43;2.40;;;2.25;;
34896;SDS011;43407;51.828;-2.298;2023-06-22T07:19:11;2.30;;;2.10;;
34896;SDS011;43407;51.828;-2.298;2023-06-22T07:21:36;3.15;;;2.10;;
34896;SDS011;43407;51.828;-2.298;2023-06-22T07:24:02;3.25;;;2.40;;
34896;SDS011;43407;51.828;-2.298;2023-06-22T07:26:28;2.45;;;2.25;;
34896;SDS011;43407;51.828;-2.298;2023-06-22T07:28:53;2.65;;;2.40;;
34896;SDS011;43407;51.828;-2.298;2023-06-22T07:31:19;3.88;;;2.72;;
34896;SDS011;43407;51.828;-2.298;2023-06-22T07:33:44;2.70;;;2.50;;
34896;SDS011;43407;51.828;-2.298;2023-06-22T07:36:09;3.25;;;2.20;;
34896;SDS011;43407;51.828;-2.298;2023-06-22T07:38:35;3.83;;;2.50;;
34896;SDS011;43407;51.828;-2.298;2023-06-22T07:41:01;2.75;;;2.13;;
34896;SDS011;43407;51.828;-2.298;2023-06-22T07:43:27;2.40;;;2.20;;
34896;SDS011;43407;51.828;-2.298;2023-06-22T07:45:55;2.15;;;1.98;;
34896;SDS011;43407;51.828;-2.298;2023-06-22T07:48:21;2.85;;;2.60;;
34896;SDS011;43407;51.828;-2.298;2023-06-22T07:50:47;2.60;;;2.40;;
34896;SDS011;43407;51.828;-2.298;2023-06-22T07:53:13;3.55;;;2.42;;
34896;SDS011;43407;51.828;-2.298;2023-06-22T07:55:38;3.97;;;2.40;;
34896;SDS011;43407;51.828;-2.298;2023-06-22T07:58:04;2.50;;;2.30;;
34896;SDS011;43407;51.828;-2.298;2023-06-22T08:00:29;3.17;;;2.20;;
34896;SDS011;43407;51.828;-2.298;2023-06-22T08:02:54;2.08;;;1.98;;
34896;SDS011;43407;51.828;-2.298;2023-06-22T08:05:20;3.20;;;2.00;;
34896;SDS011;43407;51.828;-2.298;2023-06-22T08:07:45;4.25;;;2.47;;
34896;SDS011;43407;51.828;-2.298;2023-06-22T08:10:11;2.58;;;2.38;;
34896;SDS011;43407;51.828;-2.298;2023-06-22T08:12:37;4.35;;;2.50;;
34896;SDS011;43407;51.828;-2.298;2023-06-22T08:15:03;5.25;;;2.75;;
34896;SDS011;43407;51.828;-2.298;2023-06-22T08:17:30;2.42;;;2.22;;
34896;SDS011;43407;51.828;-2.298;2023-06-22T08:19:56;3.15;;;2.50;;
34896;SDS011;43407;51.828;-2.298;2023-06-22T08:22:21;4.22;;;2.75;;
34896;SDS011;43407;51.828;-2.298;2023-06-22T08:24:47;2.88;;;2.35;;
34896;SDS011;43407;51.828;-2.298;2023-06-22T08:27:13;2.38;;;2.17;;
34896;SDS011;43407;51.828;-2.298;2023-06-22T08:29:39;2.78;;;2.45;;
34896;SDS011;43407;51.828;-2.298;2023-06-22T08:32:08;3.17;;;2.33;;
34896;SDS011;43407;51.828;-2.298;2023-06-22T08:34:34;2.67;;;2.47;;
34896;SDS011;43407;51.828;-2.298;2023-06-22T08:36:59;2.95;;;2.50;;
34896;SDS011;43407;51.828;-2.298;2023-06-22T08:39:25;2.88;;;2.53;;
34896;SDS011;43407;51.828;-2.298;2023-06-22T08:41:51;2.80;;;2.47;;
34896;SDS011;43407;51.828;-2.298;2023-06-22T08:44:18;2.85;;;2.25;;
34896;SDS011;43407;51.828;-2.298;2023-06-22T08:46:44;3.08;;;2.30;;
34896;SDS011;43407;51.828;-2.298;2023-06-22T08:49:10;2.40;;;2.20;;
34896;SDS011;43407;51.828;-2.298;2023-06-22T08:51:35;4.13;;;2.28;;
34896;SDS011;43407;51.828;-2.298;2023-06-22T08:54:01;4.18;;;2.25;;
34896;SDS011;43407;51.828;-2.298;2023-06-22T08:56:26;2.58;;;2.22;;
34896;SDS011;43407;51.828;-2.298;2023-06-22T08:58:52;2.55;;;2.35;;
34896;SDS011;43407;51.828;-2.298;2023-06-22T09:01:17;2.45;;;2.25;;
34896;SDS011;43407;51.828;-2.298;2023-06-22T09:03:44;2.72;;;2.53;;
34896;SDS011;43407;51.828;-2.298;2023-06-22T09:06:19;2.13;;;1.92;;
34896;SDS011;43407;51.828;-2.298;2023-06-22T09:08:46;2.78;;;2.53;;
34896;SDS011;43407;51.828;-2.298;2023-06-22T09:11:12;2.42;;;2.20;;
34896;SDS011;43407;51.828;-2.298;2023-06-22T09:13:37;2.60;;;2.38;;
34896;SDS011;43407;51.828;-2.298;2023-06-22T09:16:03;3.13;;;2.75;;
34896;SDS011;43407;51.828;-2.298;2023-06-22T09:18:28;3.25;;;2.65;;
34896;SDS011;43407;51.828;-2.298;2023-06-22T09:20:54;3.58;;;2.35;;
34896;SDS011;43407;51.828;-2.298;2023-06-22T09:23:19;2.17;;;2.08;;
34896;SDS011;43407;51.828;-2.298;2023-06-22T09:25:45;2.40;;;2.20;;
34896;SDS011;43407;51.828;-2.298;2023-06-22T09:28:12;5.20;;;2.55;;
34896;SDS011;43407;51.828;-2.298;2023-06-22T09:30:38;3.88;;;2.28;;
34896;SDS011;43407;51.828;-2.298;2023-06-22T09:33:04;2.60;;;2.40;;
34896;SDS011;43407;51.828;-2.298;2023-06-22T09:35:29;2.28;;;2.08;;
34896;SDS011;43407;51.828;-2.298;2023-06-22T09:37:55;2.38;;;2.17;;
34896;SDS011;43407;51.828;-2.298;2023-06-22T09:40:20;2.38;;;2.05;;
34896;SDS011;43407;51.828;-2.298;2023-06-22T09:42:46;2.08;;;1.90;;
34896;SDS011;43407;51.828;-2.298;2023-06-22T09:45:11;2.25;;;1.70;;
34896;SDS011;43407;51.828;-2.298;2023-06-22T09:47:37;3.47;;;2.20;;
34896;SDS011;43407;51.828;-2.298;2023-06-22T09:50:02;2.40;;;2.20;;
34896;SDS011;43407;51.828;-2.298;2023-06-22T09:52:28;2.00;;;1.90;;
34896;SDS011;43407;51.828;-2.298;2023-06-22T09:54:54;1.92;;;1.83;;
34896;SDS011;43407;51.828;-2.298;2023-06-22T09:57:19;2.00;;;1.80;;
34896;SDS011;43407;51.828;-2.298;2023-06-22T09:59:45;2.40;;;2.20;;
34896;SDS011;43407;51.828;-2.298;2023-06-22T10:02:10;2.85;;;2.17;;
34896;SDS011;43407;51.828;-2.298;2023-06-22T10:04:36;3.10;;;2.05;;
34896;SDS011;43407;51.828;-2.298;2023-06-22T10:07:02;2.75;;;1.90;;
34896;SDS011;43407;51.828;-2.298;2023-06-22T10:09:27;3.40;;;2.20;;
34896;SDS011;43407;51.828;-2.298;2023-06-22T10:11:53;2.47;;;1.90;;
34896;SDS011;43407;51.828;-2.298;2023-06-22T10:14:18;1.75;;;1.65;;
34896;SDS011;43407;51.828;-2.298;2023-06-22T10:16:44;2.95;;;2.15;;
34896;SDS011;43407;51.828;-2.298;2023-06-22T10:19:10;6.10;;;2.13;;
34896;SDS011;43407;51.828;-2.298;2023-06-22T10:21:35;4.55;;;1.90;;
34896;SDS011;43407;51.828;-2.298;2023-06-22T10:24:01;2.45;;;2.00;;
34896;SDS011;43407;51.828;-2.298;2023-06-22T10:26:34;2.20;;;1.80;;
34896;SDS011;43407;51.828;-2.298;2023-06-22T10:29:00;3.15;;;2.03;;
34896;SDS011;43407;51.828;-2.298;2023-06-22T10:31:26;2.00;;;1.90;;
34896;SDS011;43407;51.828;-2.298;2023-06-22T10:33:53;2.20;;;2.00;;
34896;SDS011;43407;51.828;-2.298;2023-06-22T10:36:19;1.92;;;1.83;;
34896;SDS011;43407;51.828;-2.298;2023-06-22T10:38:44;4.03;;;1.90;;
34896;SDS011;43407;51.828;-2.298;2023-06-22T10:41:10;2.78;;;1.90;;
34896;SDS011;43407;51.828;-2.298;2023-06-22T10:43:36;1.88;;;1.75;;
34896;SDS011;43407;51.828;-2.298;2023-06-22T10:46:01;2.92;;;1.80;;
34896;SDS011;43407;51.828;-2.298;2023-06-22T10:48:27;2.10;;;1.90;;
34896;SDS011;43407;51.828;-2.298;2023-06-22T10:50:52;2.03;;;1.92;;
34896;SDS011;43407;51.828;-2.298;2023-06-22T10:53:18;2.72;;;2.00;;
34896;SDS011;43407;51.828;-2.298;2023-06-22T10:55:44;3.33;;;2.00;;
34896;SDS011;43407;51.828;-2.298;2023-06-22T10:58:09;2.10;;;1.90;;
34896;SDS011;43407;51.828;-2.298;2023-06-22T11:00:35;1.88;;;1.77;;
34896;SDS011;43407;51.828;-2.298;2023-06-22T11:03:00;2.15;;;1.73;;
34896;SDS011;43407;51.828;-2.298;2023-06-22T11:05:26;2.13;;;1.88;;
34896;SDS011;43407;51.828;-2.298;2023-06-22T11:07:51;1.75;;;1.52;;
34896;SDS011;43407;51.828;-2.298;2023-06-22T11:10:17;2.38;;;2.17;;
34896;SDS011;43407;51.828;-2.298;2023-06-22T11:12:42;2.13;;;1.92;;
34896;SDS011;43407;51.828;-2.298;2023-06-22T11:15:08;2.00;;;1.90;;
34896;SDS011;43407;51.828;-2.298;2023-06-22T11:17:34;2.35;;;2.00;;
34896;SDS011;43407;51.828;-2.298;2023-06-22T11:20:00;2.33;;;1.98;;
34896;SDS011;43407;51.828;-2.298;2023-06-22T11:22:26;1.98;;;1.83;;
34896;SDS011;43407;51.828;-2.298;2023-06-22T11:24:52;2.00;;;1.90;;
34896;SDS011;43407;51.828;-2.298;2023-06-22T11:27:17;1.70;;;1.60;;
34896;SDS011;43407;51.828;-2.298;2023-06-22T11:29:43;1.83;;;1.73;;
34896;SDS011;43407;51.828;-2.298;2023-06-22T11:32:08;1.98;;;1.77;;
34896;SDS011;43407;51.828;-2.298;2023-06-22T11:34:34;1.92;;;1.83;;
34896;SDS011;43407;51.828;-2.298;2023-06-22T11:36:59;2.58;;;1.90;;
34896;SDS011;43407;51.828;-2.298;2023-06-22T11:39:25;2.00;;;1.90;;
34896;SDS011;43407;51.828;-2.298;2023-06-22T11:41:50;2.38;;;2.10;;
34896;SDS011;43407;51.828;-2.298;2023-06-22T11:44:16;5.25;;;1.90;;
34896;SDS011;43407;51.828;-2.298;2023-06-22T11:46:42;2.05;;;1.88;;
34896;SDS011;43407;51.828;-2.298;2023-06-22T11:49:08;2.40;;;2.20;;
34896;SDS011;43407;51.828;-2.298;2023-06-22T11:51:33;2.38;;;2.00;;
34896;SDS011;43407;51.828;-2.298;2023-06-22T11:53:59;2.00;;;1.90;;
34896;SDS011;43407;51.828;-2.298;2023-06-22T11:56:25;1.77;;;1.67;;
34896;SDS011;43407;51.828;-2.298;2023-06-22T11:58:50;1.50;;;1.40;;
34896;SDS011;43407;51.828;-2.298;2023-06-22T12:01:16;2.08;;;1.80;;
34896;SDS011;43407;51.828;-2.298;2023-06-22T12:03:41;2.20;;;2.00;;
34896;SDS011;43407;51.828;-2.298;2023-06-22T12:06:08;2.08;;;1.90;;
34896;SDS011;43407;51.828;-2.298;2023-06-22T12:08:34;1.90;;;1.80;;
34896;SDS011;43407;51.828;-2.298;2023-06-22T12:11:00;2.45;;;1.80;;
34896;SDS011;43407;51.828;-2.298;2023-06-22T12:13:25;2.97;;;2.00;;
34896;SDS011;43407;51.828;-2.298;2023-06-22T12:15:51;2.00;;;1.90;;
34896;SDS011;43407;51.828;-2.298;2023-06-22T12:18:17;2.20;;;2.00;;
34896;SDS011;43407;51.828;-2.298;2023-06-22T12:20:45;2.30;;;2.10;;
34896;SDS011;43407;51.828;-2.298;2023-06-22T12:23:11;2.55;;;1.80;;
34896;SDS011;43407;51.828;-2.298;2023-06-22T12:25:37;2.00;;;1.80;;
34896;SDS011;43407;51.828;-2.298;2023-06-22T12:28:04;2.13;;;2.00;;
34896;SDS011;43407;51.828;-2.298;2023-06-22T12:30:30;2.40;;;2.17;;
34896;SDS011;43407;51.828;-2.298;2023-06-22T12:32:56;2.63;;;1.80;;
34896;SDS011;43407;51.828;-2.298;2023-06-22T12:35:21;2.20;;;2.00;;
34896;SDS011;43407;51.828;-2.298;2023-06-22T12:37:47;2.03;;;1.83;;
34896;SDS011;43407;51.828;-2.298;2023-06-22T12:40:12;1.98;;;1.77;;
34896;SDS011;43407;51.828;-2.298;2023-06-22T12:42:38;2.00;;;1.80;;
34896;SDS011;43407;51.828;-2.298;2023-06-22T12:45:03;2.10;;;1.90;;
34896;SDS011;43407;51.828;-2.298;2023-06-22T12:47:29;2.25;;;2.05;;
34896;SDS011;43407;51.828;-2.298;2023-06-22T12:49:55;2.53;;;2.30;;
34896;SDS011;43407;51.828;-2.298;2023-06-22T12:52:20;2.03;;;1.88;;
34896;SDS011;43407;51.828;-2.298;2023-06-22T12:54:46;1.83;;;1.73;;
34896;SDS011;43407;51.828;-2.298;2023-06-22T12:57:11;1.85;;;1.75;;
34896;SDS011;43407;51.828;-2.298;2023-06-22T12:59:37;1.70;;;1.60;;
34896;SDS011;43407;51.828;-2.298;2023-06-22T13:02:02;3.25;;;1.90;;
34896;SDS011;43407;51.828;-2.298;2023-06-22T13:04:28;2.10;;;1.98;;
34896;SDS011;43407;51.828;-2.298;2023-06-22T13:06:53;2.17;;;2.08;;
34896;SDS011;43407;51.828;-2.298;2023-06-22T13:09:19;1.98;;;1.88;;
34896;SDS011;43407;51.828;-2.298;2023-06-22T13:11:45;1.80;;;1.70;;
34896;SDS011;43407;51.828;-2.298;2023-06-22T13:14:10;1.50;;;1.40;;
34896;SDS011;43407;51.828;-2.298;2023-06-22T13:16:36;2.17;;;1.98;;
34896;SDS011;43407;51.828;-2.298;2023-06-22T13:19:01;2.03;;;1.92;;
34896;SDS011;43407;51.828;-2.298;2023-06-22T13:21:27;1.52;;;1.42;;
34896;SDS011;43407;51.828;-2.298;2023-06-22T13:23:52;1.92;;;1.80;;
34896;SDS011;43407;51.828;-2.298;2023-06-22T13:26:18;1.77;;;1.67;;
34896;SDS011;43407;51.828;-2.298;2023-06-22T13:28:43;1.92;;;1.83;;
34896;SDS011;43407;51.828;-2.298;2023-06-22T13:31:09;2.33;;;1.67;;
34896;SDS011;43407;51.828;-2.298;2023-06-22T13:33:34;1.40;;;1.30;;
34896;SDS011;43407;51.828;-2.298;2023-06-22T13:36:00;2.28;;;1.40;;
34896;SDS011;43407;51.828;-2.298;2023-06-22T13:38:28;1.60;;;1.50;;
34896;SDS011;43407;51.828;-2.298;2023-06-22T13:40:53;1.48;;;1.38;;
34896;SDS011;43407;51.828;-2.298;2023-06-22T13:43:20;1.20;;;1.20;;
34896;SDS011;43407;51.828;-2.298;2023-06-22T13:45:46;1.30;;;1.20;;
34896;SDS011;43407;51.828;-2.298;2023-06-22T13:48:11;1.60;;;1.50;;
34896;SDS011;43407;51.828;-2.298;2023-06-22T13:50:37;1.50;;;1.40;;
34896;SDS011;43407;51.828;-2.298;2023-06-22T13:53:02;1.27;;;1.20;;
34896;SDS011;43407;51.828;-2.298;2023-06-22T13:55:28;1.40;;;1.30;;
34896;SDS011;43407;51.828;-2.298;2023-06-22T13:57:54;3.60;;;1.40;;
34896;SDS011;43407;51.828;-2.298;2023-06-22T14:00:19;1.52;;;1.42;;
34896;SDS011;43407;51.828;-2.298;2023-06-22T14:02:45;5.93;;;2.08;;
34896;SDS011;43407;51.828;-2.298;2023-06-22T14:05:10;1.52;;;1.42;;
34896;SDS011;43407;51.828;-2.298;2023-06-22T14:07:36;1.92;;;1.50;;
34896;SDS011;43407;51.828;-2.298;2023-06-22T14:10:02;1.40;;;1.30;;
34896;SDS011;43407;51.828;-2.298;2023-06-22T14:12:28;1.48;;;1.10;;
34896;SDS011;43407;51.828;-2.298;2023-06-22T14:14:54;1.38;;;1.27;;
34896;SDS011;43407;51.828;-2.298;2023-06-22T14:17:19;1.40;;;1.30;;
34896;SDS011;43407;51.828;-2.298;2023-06-22T14:19:50;2.00;;;1.55;;
34896;SDS011;43407;51.828;-2.298;2023-06-22T14:22:18;3.97;;;1.63;;
34896;SDS011;43407;51.828;-2.298;2023-06-22T14:24:44;1.80;;;1.60;;
34896;SDS011;43407;51.828;-2.298;2023-06-22T14:27:09;1.52;;;1.30;;
34896;SDS011;43407;51.828;-2.298;2023-06-22T14:29:35;2.90;;;1.98;;
34896;SDS011;43407;51.828;-2.298;2023-06-22T14:32:01;2.58;;;2.03;;
34896;SDS011;43407;51.828;-2.298;2023-06-22T14:34:26;2.42;;;2.22;;